createdAt,value
2019-03-05T00:04:17.427Z,1.77
2019-03-05T00:14:25.905Z,1.10
2019-03-05T00:25:03.328Z,5.27
2019-03-05T00:35:40.040Z,2.23
2019-03-05T00:46:19.574Z,2.17
2019-03-05T00:56:52.510Z,3.40
2019-03-05T01:06:58.127Z,4.47
2019-03-05T01:17:03.928Z,3.03
2019-03-05T01:27:09.402Z,4.97
2019-03-05T01:37:14.757Z,5.23
2019-03-05T01:47:20.073Z,3.67
2019-03-05T01:57:25.632Z,5.33
2019-03-05T02:07:31.696Z,4.80
2019-03-05T02:17:37.155Z,5.30
2019-03-05T02:28:16.935Z,5.00
2019-03-05T02:39:18.960Z,5.57
2019-03-05T02:50:11.133Z,5.37
2019-03-05T03:00:23.767Z,6.73
2019-03-05T03:10:29.237Z,5.63
2019-03-05T03:20:34.758Z,6.73
2019-03-05T03:30:40.285Z,3.53
2019-03-05T03:40:45.876Z,5.37
2019-03-05T03:50:51.512Z,4.40
2019-03-05T04:00:56.944Z,8.53
2019-03-05T04:11:02.340Z,5.90
2019-03-05T04:21:07.764Z,7.27
2019-03-05T04:31:13.860Z,7.77
2019-03-05T04:41:19.190Z,8.50
2019-03-05T04:51:31.720Z,7.03
2019-03-05T05:01:37.078Z,6.87
2019-03-05T05:11:42.792Z,7.47
2019-03-05T05:21:48.146Z,8.37
2019-03-05T05:31:53.719Z,10.07
2019-03-05T05:41:59.466Z,12.97
2019-03-05T05:52:04.843Z,10.30
2019-03-05T06:02:10.282Z,10.10
2019-03-05T06:12:16.652Z,8.33
2019-03-05T06:22:22.233Z,10.17
2019-03-05T06:32:28.225Z,13.33
2019-03-05T06:42:33.710Z,10.60
2019-03-05T06:52:39.556Z,7.50
2019-03-05T07:02:45.218Z,12.97
2019-03-05T07:13:11.583Z,15.17
2019-03-05T07:24:10.129Z,12.33
2019-03-05T07:34:22.511Z,7.33
2019-03-05T07:44:28.039Z,9.47
2019-03-05T07:54:34.040Z,9.57
2019-03-05T08:04:39.829Z,15.60
2019-03-05T08:15:31.427Z,10.30
2019-03-05T08:25:36.902Z,10.33
2019-03-05T08:35:43.413Z,12.13
2019-03-05T08:45:49.233Z,6.77
2019-03-05T08:55:54.800Z,8.53
2019-03-05T09:06:00.309Z,8.07
2019-03-05T09:16:05.756Z,9.13
2019-03-05T09:26:11.495Z,8.30
2019-03-05T09:36:16.940Z,9.00
2019-03-05T09:46:22.653Z,9.53
2019-03-05T09:56:29.495Z,8.23
2019-03-05T10:06:34.971Z,13.70
2019-03-05T10:16:40.687Z,6.67
2019-03-05T10:26:46.257Z,9.97
2019-03-05T10:36:51.693Z,8.60
2019-03-05T10:46:57.869Z,8.33
2019-03-05T10:57:03.509Z,8.63
2019-03-05T11:07:09.364Z,8.53
2019-03-05T11:17:14.814Z,10.93
2019-03-05T11:27:20.234Z,5.90
2019-03-05T11:37:25.890Z,12.13
2019-03-05T11:47:31.258Z,7.03
2019-03-05T11:57:36.716Z,7.80
2019-03-05T12:07:46.007Z,10.63
2019-03-05T12:17:51.260Z,8.83
2019-03-05T12:27:56.556Z,8.80
2019-03-05T12:38:02.044Z,7.00
2019-03-05T12:48:07.782Z,8.37
2019-03-05T12:58:13.798Z,9.67
2019-03-05T13:08:19.265Z,11.57
2019-03-05T13:18:26.747Z,10.03
2019-03-05T13:28:32.231Z,11.00
2019-03-05T13:38:37.570Z,15.80
2019-03-05T13:49:39.973Z,8.20
2019-03-05T13:59:46.344Z,8.60
2019-03-05T14:09:52.963Z,9.00
2019-03-05T14:19:58.597Z,6.90
2019-03-05T14:30:04.741Z,12.87
2019-03-05T14:40:30.990Z,8.93
2019-03-05T14:50:36.845Z,7.87
2019-03-05T15:00:42.378Z,7.67
2019-03-05T15:10:48.129Z,6.30
2019-03-05T15:20:53.605Z,6.07
2019-03-05T15:30:59.151Z,11.23
2019-03-05T15:41:04.727Z,7.03
2019-03-05T15:51:10.443Z,6.93
2019-03-05T16:01:22.142Z,5.80
2019-03-05T16:11:23.473Z,7.00
2019-03-05T16:21:29.161Z,8.23
2019-03-05T16:31:49.843Z,9.30
2019-03-05T16:42:17.612Z,5.73
2019-03-05T16:52:29.011Z,5.30
2019-03-05T17:02:52.301Z,6.80
2019-03-05T17:12:57.859Z,5.80
2019-03-05T17:23:03.323Z,7.73
2019-03-05T17:33:08.867Z,6.87
2019-03-05T17:43:15.981Z,8.93
2019-03-05T17:53:21.263Z,7.77
2019-03-05T18:03:27.228Z,12.27
2019-03-05T18:13:33.038Z,10.37
2019-03-05T18:23:39.208Z,9.47
2019-03-05T18:33:44.623Z,9.37
2019-03-05T18:43:50.430Z,14.27
2019-03-05T18:53:55.765Z,12.23
2019-03-05T19:04:01.155Z,10.47
2019-03-05T19:14:07.038Z,14.20
2019-03-05T19:24:12.887Z,10.97
2019-03-05T19:34:18.397Z,13.60
2019-03-05T19:44:23.678Z,11.53
2019-03-05T19:54:28.976Z,11.87
2019-03-05T20:04:34.581Z,14.67
2019-03-05T20:14:41.068Z,14.60
2019-03-05T20:24:47.731Z,8.90
2019-03-05T20:34:53.060Z,13.93
2019-03-05T20:44:58.664Z,15.80
2019-03-05T20:55:04.051Z,15.43
2019-03-05T21:05:09.543Z,14.77
2019-03-05T21:15:15.457Z,13.37
2019-03-05T21:25:20.991Z,14.87
2019-03-05T21:35:26.824Z,15.43
2019-03-05T21:45:34.640Z,14.70
2019-03-05T21:55:40.140Z,14.37
2019-03-05T22:05:46.054Z,13.67
2019-03-05T22:15:52.885Z,15.77
2019-03-05T22:25:58.284Z,16.13
2019-03-05T22:36:04.242Z,14.77
2019-03-05T22:46:09.721Z,14.37
2019-03-05T22:56:15.381Z,13.93
2019-03-05T23:06:21.267Z,17.33
2019-03-05T23:16:26.995Z,15.17
2019-03-05T23:26:32.647Z,16.97
2019-03-05T23:36:38.093Z,13.60
2019-03-05T23:46:43.649Z,17.07
2019-03-05T23:56:49.198Z,13.33
